sensor_id;sensor_type;location;lat;lon;timestamp;pressure;altitude;pressure_sealevel;temperature;humidity
11692;BME280;33659;42.672;23.354;2023-01-28T00:01:06;93678.66;;;1.40;78.64
11692;BME280;33659;42.672;23.354;2023-01-28T00:03:33;93705.50;;;1.47;78.63
11692;BME280;33659;42.672;23.354;2023-01-28T00:06:03;93693.72;;;1.46;78.17
11692;BME280;33659;42.672;23.354;2023-01-28T00:08:30;93694.00;;;1.45;78.02
11692;BME280;33659;42.672;23.354;2023-01-28T00:10:58;93693.78;;;1.41;77.93
11692;BME280;33659;42.672;23.354;2023-01-28T00:13:26;93709.97;;;1.28;78.17
11692;BME280;33659;42.672;23.354;2023-01-28T00:15:54;93711.88;;;1.22;79.21
11692;BME280;33659;42.672;23.354;2023-01-28T00:18:22;93709.03;;;1.24;78.71
11692;BME280;33659;42.672;23.354;2023-01-28T00:20:55;93695.44;;;1.23;78.53
11692;BME280;33659;42.672;23.354;2023-01-28T00:23:22;93710.09;;;1.23;78.58
11692;BME280;33659;42.672;23.354;2023-01-28T00:25:49;93713.50;;;1.18;78.99
11692;BME280;33659;42.672;23.354;2023-01-28T00:28:16;93702.25;;;1.14;79.31
11692;BME280;33659;42.672;23.354;2023-01-28T00:30:42;93717.41;;;1.16;79.28
11692;BME280;33659;42.672;23.354;2023-01-28T00:33:09;93702.94;;;1.06;78.89
11692;BME280;33659;42.672;23.354;2023-01-28T00:35:37;93702.19;;;1.19;79.29
11692;BME280;33659;42.672;23.354;2023-01-28T00:38:04;93720.56;;;1.26;79.03
11692;BME280;33659;42.672;23.354;2023-01-28T00:40:31;93718.66;;;1.18;78.65
11692;BME280;33659;42.672;23.354;2023-01-28T00:42:58;93724.28;;;1.20;78.75
11692;BME280;33659;42.672;23.354;2023-01-28T00:45:25;93718.19;;;1.30;78.89
11692;BME280;33659;42.672;23.354;2023-01-28T00:47:51;93728.38;;;1.35;77.96
11692;BME280;33659;42.672;23.354;2023-01-28T00:50:18;93727.34;;;1.36;78.18
11692;BME280;33659;42.672;23.354;2023-01-28T00:52:47;93732.19;;;1.38;77.80
11692;BME280;33659;42.672;23.354;2023-01-28T00:55:14;93723.22;;;1.35;77.92
11692;BME280;33659;42.672;23.354;2023-01-28T00:57:40;93721.53;;;1.30;78.13
11692;BME280;33659;42.672;23.354;2023-01-28T01:00:08;93725.81;;;1.35;78.05
11692;BME280;33659;42.672;23.354;2023-01-28T01:02:35;93735.72;;;1.42;78.24
11692;BME280;33659;42.672;23.354;2023-01-28T01:05:02;93721.06;;;1.42;78.21
11692;BME280;33659;42.672;23.354;2023-01-28T01:07:29;93714.19;;;1.38;78.06
11692;BME280;33659;42.672;23.354;2023-01-28T01:10:09;93731.72;;;1.35;77.76
11692;BME280;33659;42.672;23.354;2023-01-28T01:12:36;93717.53;;;1.38;77.89
11692;BME280;33659;42.672;23.354;2023-01-28T01:15:09;93731.72;;;1.35;77.63
11692;BME280;33659;42.672;23.354;2023-01-28T01:17:36;93738.19;;;1.33;77.70
11692;BME280;33659;42.672;23.354;2023-01-28T01:20:04;93726.00;;;1.25;77.93
11692;BME280;33659;42.672;23.354;2023-01-28T01:22:32;93730.56;;;1.28;77.86
11692;BME280;33659;42.672;23.354;2023-01-28T01:24:59;93735.81;;;1.23;77.92
11692;BME280;33659;42.672;23.354;2023-01-28T01:27:27;93733.31;;;1.18;78.35
11692;BME280;33659;42.672;23.354;2023-01-28T01:29:53;93729.69;;;1.19;78.01
11692;BME280;33659;42.672;23.354;2023-01-28T01:32:21;93718.66;;;1.18;78.52
11692;BME280;33659;42.672;23.354;2023-01-28T01:34:48;93743.91;;;1.30;78.40
11692;BME280;33659;42.672;23.354;2023-01-28T01:37:14;93731.59;;;1.27;77.66
11692;BME280;33659;42.672;23.354;2023-01-28T01:39:41;93739.41;;;1.22;78.13
11692;BME280;33659;42.672;23.354;2023-01-28T01:42:09;93734.25;;;1.22;78.32
11692;BME280;33659;42.672;23.354;2023-01-28T01:44:55;93743.59;;;1.18;78.06
11692;BME280;33659;42.672;23.354;2023-01-28T01:47:24;93742.25;;;1.20;78.53
11692;BME280;33659;42.672;23.354;2023-01-28T01:49:54;93738.16;;;1.19;78.88
11692;BME280;33659;42.672;23.354;2023-01-28T01:52:25;93739.78;;;1.15;78.85
11692;BME280;33659;42.672;23.354;2023-01-28T01:54:55;93707.47;;;0.95;79.15
11692;BME280;33659;42.672;23.354;2023-01-28T01:57:29;93721.59;;;1.12;78.79
11692;BME280;33659;42.672;23.354;2023-01-28T02:00:00;93739.31;;;1.13;78.95
11692;BME280;33659;42.672;23.354;2023-01-28T02:02:34;93736.19;;;1.16;79.44
11692;BME280;33659;42.672;23.354;2023-01-28T02:05:03;93744.44;;;1.13;79.01
11692;BME280;33659;42.672;23.354;2023-01-28T02:07:30;93730.88;;;0.94;79.02
11692;BME280;33659;42.672;23.354;2023-01-28T02:09:57;93753.13;;;1.17;79.60
11692;BME280;33659;42.672;23.354;2023-01-28T02:12:26;93752.25;;;1.22;78.60
11692;BME280;33659;42.672;23.354;2023-01-28T02:14:56;93750.56;;;1.17;78.98
11692;BME280;33659;42.672;23.354;2023-01-28T02:17:26;93750.81;;;1.16;78.82
11692;BME280;33659;42.672;23.354;2023-01-28T02:19:56;93755.09;;;1.06;78.89
11692;BME280;33659;42.672;23.354;2023-01-28T02:28:39;93761.94;;;0.97;79.37
11692;BME280;33659;42.672;23.354;2023-01-28T02:31:10;93762.31;;;0.91;79.25
11692;BME280;33659;42.672;23.354;2023-01-28T02:33:43;93765.34;;;0.93;79.39
11692;BME280;33659;42.672;23.354;2023-01-28T02:36:17;93756.97;;;1.01;79.57
11692;BME280;33659;42.672;23.354;2023-01-28T02:38:49;93756.16;;;1.05;78.67
11692;BME280;33659;42.672;23.354;2023-01-28T02:41:23;93764.97;;;0.99;78.83
11692;BME280;33659;42.672;23.354;2023-01-28T02:43:52;93769.16;;;0.95;78.56
11692;BME280;33659;42.672;23.354;2023-01-28T02:46:33;93754.41;;;1.01;79.11
11692;BME280;33659;42.672;23.354;2023-01-28T02:49:21;93767.13;;;1.11;78.26
11692;BME280;33659;42.672;23.354;2023-01-28T02:52:02;93759.09;;;1.13;78.37
11692;BME280;33659;42.672;23.354;2023-01-28T02:54:37;93757.13;;;1.10;78.27
11692;BME280;33659;42.672;23.354;2023-01-28T02:57:16;93773.69;;;1.17;78.67
11692;BME280;33659;42.672;23.354;2023-01-28T02:59:54;93747.41;;;1.20;77.81
11692;BME280;33659;42.672;23.354;2023-01-28T03:02:29;93768.28;;;1.19;77.72
11692;BME280;33659;42.672;23.354;2023-01-28T03:05:05;93769.41;;;1.13;77.54
11692;BME280;33659;42.672;23.354;2023-01-28T03:07:34;93754.53;;;1.10;77.93
11692;BME280;33659;42.672;23.354;2023-01-28T03:10:06;93770.53;;;1.06;77.92
11692;BME280;33659;42.672;23.354;2023-01-28T03:12:34;93763.47;;;0.98;78.20
11692;BME280;33659;42.672;23.354;2023-01-28T03:15:23;93758.03;;;1.00;77.96
11692;BME280;33659;42.672;23.354;2023-01-28T03:18:11;93770.13;;;0.99;78.44
11692;BME280;33659;42.672;23.354;2023-01-28T03:21:01;93766.69;;;0.90;78.35
11692;BME280;33659;42.672;23.354;2023-01-28T03:23:53;93773.88;;;0.88;78.58
11692;BME280;33659;42.672;23.354;2023-01-28T03:26:44;93759.22;;;0.89;78.50
11692;BME280;33659;42.672;23.354;2023-01-28T03:29:32;93778.84;;;0.85;78.27
11692;BME280;33659;42.672;23.354;2023-01-28T03:32:18;93781.13;;;0.86;78.20
11692;BME280;33659;42.672;23.354;2023-01-28T03:35:05;93775.16;;;0.91;78.37
11692;BME280;33659;42.672;23.354;2023-01-28T03:37:51;93791.88;;;0.88;78.37
11692;BME280;33659;42.672;23.354;2023-01-28T03:40:19;93783.88;;;0.90;78.77
11692;BME280;33659;42.672;23.354;2023-01-28T03:42:46;93782.75;;;0.96;78.38
11692;BME280;33659;42.672;23.354;2023-01-28T03:45:13;93779.03;;;0.88;78.74
11692;BME280;33659;42.672;23.354;2023-01-28T03:47:41;93780.22;;;0.77;78.25
11692;BME280;33659;42.672;23.354;2023-01-28T03:50:09;93767.88;;;0.60;79.08
11692;BME280;33659;42.672;23.354;2023-01-28T03:52:36;93775.19;;;0.72;79.65
11692;BME280;33659;42.672;23.354;2023-01-28T03:55:03;93791.13;;;0.69;79.58
11692;BME280;33659;42.672;23.354;2023-01-28T03:57:38;93797.25;;;0.73;79.46
11692;BME280;33659;42.672;23.354;2023-01-28T04:00:06;93789.31;;;0.69;78.91
11692;BME280;33659;42.672;23.354;2023-01-28T04:02:34;93790.19;;;0.65;79.33
11692;BME280;33659;42.672;23.354;2023-01-28T04:05:07;93786.75;;;0.69;78.89
11692;BME280;33659;42.672;23.354;2023-01-28T04:07:37;93784.81;;;0.61;79.13
11692;BME280;33659;42.672;23.354;2023-01-28T04:10:05;93787.31;;;0.66;79.76
11692;BME280;33659;42.672;23.354;2023-01-28T04:12:33;93790.94;;;0.65;79.48
11692;BME280;33659;42.672;23.354;2023-01-28T04:15:03;93799.88;;;0.68;79.69
11692;BME280;33659;42.672;23.354;2023-01-28T04:17:40;93793.63;;;0.74;79.37
11692;BME280;33659;42.672;23.354;2023-01-28T04:20:11;93787.50;;;0.70;79.07
11692;BME280;33659;42.672;23.354;2023-01-28T04:22:38;93797.25;;;0.73;79.05
11692;BME280;33659;42.672;23.354;2023-01-28T04:25:05;93806.97;;;0.76;79.37
11692;BME280;33659;42.672;23.354;2023-01-28T04:27:32;93803.44;;;0.72;79.00
11692;BME280;33659;42.672;23.354;2023-01-28T04:29:59;93803.03;;;0.65;79.13
11692;BME280;33659;42.672;23.354;2023-01-28T04:32:26;93799.25;;;0.57;79.17
11692;BME280;33659;42.672;23.354;2023-01-28T04:34:52;93806.78;;;0.53;79.37
11692;BME280;33659;42.672;23.354;2023-01-28T04:37:20;93816.00;;;0.54;79.35
11692;BME280;33659;42.672;23.354;2023-01-28T04:39:47;93813.91;;;0.57;80.18
11692;BME280;33659;42.672;23.354;2023-01-28T04:42:14;93823.56;;;0.65;79.50
11692;BME280;33659;42.672;23.354;2023-01-28T04:44:40;93831.88;;;0.57;79.48
11692;BME280;33659;42.672;23.354;2023-01-28T04:47:07;93828.00;;;0.59;79.41
11692;BME280;33659;42.672;23.354;2023-01-28T04:49:34;93826.50;;;0.58;79.96
11692;BME280;33659;42.672;23.354;2023-01-28T04:52:00;93828.78;;;0.60;79.82
11692;BME280;33659;42.672;23.354;2023-01-28T04:54:29;93829.47;;;0.65;79.88
11692;BME280;33659;42.672;23.354;2023-01-28T04:56:56;93838.78;;;0.61;79.88
11692;BME280;33659;42.672;23.354;2023-01-28T04:59:23;93831.06;;;0.61;80.35
11692;BME280;33659;42.672;23.354;2023-01-28T05:01:49;93829.19;;;0.67;80.13
11692;BME280;33659;42.672;23.354;2023-01-28T05:04:16;93841.81;;;0.63;80.25
11692;BME280;33659;42.672;23.354;2023-01-28T05:06:43;93845.16;;;0.64;80.23
11692;BME280;33659;42.672;23.354;2023-01-28T05:09:09;93847.81;;;0.59;80.57
11692;BME280;33659;42.672;23.354;2023-01-28T05:11:37;93849.03;;;0.61;80.38
11692;BME280;33659;42.672;23.354;2023-01-28T05:14:04;93854.94;;;0.62;80.68
11692;BME280;33659;42.672;23.354;2023-01-28T05:16:31;93848.47;;;0.64;80.54
11692;BME280;33659;42.672;23.354;2023-01-28T05:18:59;93853.34;;;0.66;80.13
11692;BME280;33659;42.672;23.354;2023-01-28T05:21:26;93863.13;;;0.64;79.99
11692;BME280;33659;42.672;23.354;2023-01-28T05:23:53;93856.97;;;0.65;80.34
11692;BME280;33659;42.672;23.354;2023-01-28T05:26:19;93867.50;;;0.63;79.51
11692;BME280;33659;42.672;23.354;2023-01-28T05:28:48;93868.88;;;0.56;79.45
11692;BME280;33659;42.672;23.354;2023-01-28T05:31:15;93867.09;;;0.56;79.84
11692;BME280;33659;42.672;23.354;2023-01-28T05:33:42;93855.28;;;0.55;79.58
11692;BME280;33659;42.672;23.354;2023-01-28T05:36:09;93858.84;;;0.59;79.38
11692;BME280;33659;42.672;23.354;2023-01-28T05:38:35;93857.50;;;0.62;79.66
11692;BME280;33659;42.672;23.354;2023-01-28T05:41:02;93871.59;;;0.64;79.20
11692;BME280;33659;42.672;23.354;2023-01-28T05:43:29;93877.53;;;0.65;79.46
11692;BME280;33659;42.672;23.354;2023-01-28T05:45:57;93863.00;;;0.74;78.98
11692;BME280;33659;42.672;23.354;2023-01-28T05:48:23;93871.75;;;0.73;78.80
11692;BME280;33659;42.672;23.354;2023-01-28T05:50:50;93878.28;;;0.65;78.68
11692;BME280;33659;42.672;23.354;2023-01-28T05:53:17;93858.75;;;0.64;78.89
11692;BME280;33659;42.672;23.354;2023-01-28T05:55:46;93869.38;;;0.58;79.15
11692;BME280;33659;42.672;23.354;2023-01-28T05:58:13;93867.59;;;0.58;78.63
11692;BME280;33659;42.672;23.354;2023-01-28T06:00:40;93883.09;;;0.72;78.73
11692;BME280;33659;42.672;23.354;2023-01-28T06:03:08;93879.88;;;0.80;78.48
11692;BME280;33659;42.672;23.354;2023-01-28T06:05:34;93893.22;;;0.82;78.53
11692;BME280;33659;42.672;23.354;2023-01-28T06:08:01;93899.25;;;0.72;78.43
11692;BME280;33659;42.672;23.354;2023-01-28T06:10:28;93900.38;;;0.66;78.48
11692;BME280;33659;42.672;23.354;2023-01-28T06:12:54;93896.28;;;0.65;78.12
11692;BME280;33659;42.672;23.354;2023-01-28T06:15:21;93892.44;;;0.63;78.45
11692;BME280;33659;42.672;23.354;2023-01-28T06:17:48;93911.94;;;0.64;78.99
11692;BME280;33659;42.672;23.354;2023-01-28T06:20:16;93902.66;;;0.68;79.11
11692;BME280;33659;42.672;23.354;2023-01-28T06:22:43;93916.47;;;0.72;78.50
11692;BME280;33659;42.672;23.354;2023-01-28T06:25:10;93922.34;;;0.77;78.16
11692;BME280;33659;42.672;23.354;2023-01-28T06:27:36;93941.13;;;0.73;78.34
11692;BME280;33659;42.672;23.354;2023-01-28T06:30:04;93925.72;;;0.73;77.83
11692;BME280;33659;42.672;23.354;2023-01-28T06:32:31;93932.91;;;0.71;78.33
11692;BME280;33659;42.672;23.354;2023-01-28T06:34:58;93938.28;;;0.74;78.60
11692;BME280;33659;42.672;23.354;2023-01-28T06:37:26;93938.06;;;0.71;78.45
11692;BME280;33659;42.672;23.354;2023-01-28T06:39:52;93937.44;;;0.60;78.66
11692;BME280;33659;42.672;23.354;2023-01-28T06:42:19;93937.63;;;0.64;78.59
11692;BME280;33659;42.672;23.354;2023-01-28T06:44:46;93936.81;;;0.68;78.52
11692;BME280;33659;42.672;23.354;2023-01-28T06:47:12;93941.03;;;0.59;78.41
11692;BME280;33659;42.672;23.354;2023-01-28T06:49:40;93963.13;;;0.60;79.05
11692;BME280;33659;42.672;23.354;2023-01-28T06:52:06;93954.03;;;0.68;78.54
11692;BME280;33659;42.672;23.354;2023-01-28T06:54:34;93958.13;;;0.69;78.62
11692;BME280;33659;42.672;23.354;2023-01-28T06:57:01;93955.78;;;0.72;78.66
11692;BME280;33659;42.672;23.354;2023-01-28T06:59:27;93962.16;;;0.75;78.46
11692;BME280;33659;42.672;23.354;2023-01-28T07:01:54;93953.56;;;0.66;78.36
11692;BME280;33659;42.672;23.354;2023-01-28T07:04:21;93953.69;;;0.74;78.27
11692;BME280;33659;42.672;23.354;2023-01-28T07:06:47;93966.69;;;0.83;77.78
11692;BME280;33659;42.672;23.354;2023-01-28T07:09:14;93974.97;;;0.80;77.16
11692;BME280;33659;42.672;23.354;2023-01-28T07:11:42;93967.13;;;0.71;78.17
11692;BME280;33659;42.672;23.354;2023-01-28T07:14:09;93980.09;;;0.80;78.04
11692;BME280;33659;42.672;23.354;2023-01-28T07:16:35;93984.69;;;0.83;78.48
11692;BME280;33659;42.672;23.354;2023-01-28T07:19:02;93989.56;;;0.85;77.70
11692;BME280;33659;42.672;23.354;2023-01-28T07:21:29;94001.66;;;0.84;77.95
11692;BME280;33659;42.672;23.354;2023-01-28T07:23:55;93993.38;;;0.87;77.76
11692;BME280;33659;42.672;23.354;2023-01-28T07:26:22;93998.63;;;0.77;77.99
11692;BME280;33659;42.672;23.354;2023-01-28T07:28:50;93989.66;;;0.74;77.63
11692;BME280;33659;42.672;23.354;2023-01-28T07:31:17;94002.28;;;0.71;77.97
11692;BME280;33659;42.672;23.354;2023-01-28T07:33:44;93991.91;;;0.81;78.20
11692;BME280;33659;42.672;23.354;2023-01-28T07:36:10;94011.84;;;0.89;77.58
11692;BME280;33659;42.672;23.354;2023-01-28T07:38:37;94026.75;;;0.92;77.34
11692;BME280;33659;42.672;23.354;2023-01-28T07:41:04;94012.84;;;0.93;77.29
11692;BME280;33659;42.672;23.354;2023-01-28T07:43:30;94009.28;;;0.89;77.17
11692;BME280;33659;42.672;23.354;2023-01-28T07:46:00;94025.97;;;0.92;77.19
11692;BME280;33659;42.672;23.354;2023-01-28T07:48:27;94008.19;;;0.95;77.10
11692;BME280;33659;42.672;23.354;2023-01-28T07:50:57;94015.69;;;0.92;77.13
11692;BME280;33659;42.672;23.354;2023-01-28T07:53:24;94009.66;;;1.01;77.52
11692;BME280;33659;42.672;23.354;2023-01-28T07:55:51;94024.13;;;0.97;77.40
11692;BME280;33659;42.672;23.354;2023-01-28T07:58:18;94023.03;;;1.03;76.52
11692;BME280;33659;42.672;23.354;2023-01-28T08:00:44;94031.00;;;1.02;76.97
11692;BME280;33659;42.672;23.354;2023-01-28T08:03:13;94020.94;;;1.05;76.97
11692;BME280;33659;42.672;23.354;2023-01-28T08:05:44;94025.84;;;1.02;76.98
11692;BME280;33659;42.672;23.354;2023-01-28T08:08:11;94019.94;;;1.01;76.74
11692;BME280;33659;42.672;23.354;2023-01-28T08:10:38;94031.56;;;0.99;77.03
11692;BME280;33659;42.672;23.354;2023-01-28T08:13:06;94022.91;;;0.90;76.81
11692;BME280;33659;42.672;23.354;2023-01-28T08:15:33;94037.75;;;0.98;76.78
11692;BME280;33659;42.672;23.354;2023-01-28T08:17:59;94030.44;;;1.05;76.84
11692;BME280;33659;42.672;23.354;2023-01-28T08:20:28;94040.03;;;0.99;76.64
11692;BME280;33659;42.672;23.354;2023-01-28T08:23:04;94010.47;;;0.78;76.33
11692;BME280;33659;42.672;23.354;2023-01-28T08:25:32;94047.91;;;0.84;77.00
11692;BME280;33659;42.672;23.354;2023-01-28T08:27:59;94037.56;;;0.65;77.26
11692;BME280;33659;42.672;23.354;2023-01-28T08:30:26;94033.19;;;0.66;77.40
11692;BME280;33659;42.672;23.354;2023-01-28T08:32:54;94040.41;;;0.64;77.52
11692;BME280;33659;42.672;23.354;2023-01-28T08:35:21;94048.88;;;0.64;77.49
11692;BME280;33659;42.672;23.354;2023-01-28T08:37:49;94042.97;;;0.64;77.58
11692;BME280;33659;42.672;23.354;2023-01-28T08:40:16;94052.22;;;0.65;77.57
11692;BME280;33659;42.672;23.354;2023-01-28T08:42:46;94040.31;;;0.74;77.27
11692;BME280;33659;42.672;23.354;2023-01-28T08:45:12;94038.81;;;0.68;77.52
11692;BME280;33659;42.672;23.354;2023-01-28T08:47:46;94028.50;;;0.73;77.60
11692;BME280;33659;42.672;23.354;2023-01-28T08:50:13;94030.50;;;0.76;77.12
11692;BME280;33659;42.672;23.354;2023-01-28T08:52:40;94048.28;;;0.96;77.16
11692;BME280;33659;42.672;23.354;2023-01-28T08:55:10;94033.94;;;1.14;76.52
11692;BME280;33659;42.672;23.354;2023-01-28T08:57:37;94009.88;;;1.05;76.47
11692;BME280;33659;42.672;23.354;2023-01-28T09:00:05;94050.91;;;1.34;75.51
11692;BME280;33659;42.672;23.354;2023-01-28T09:02:32;94051.44;;;1.36;75.51
11692;BME280;33659;42.672;23.354;2023-01-28T09:04:59;94050.81;;;1.44;75.14
11692;BME280;33659;42.672;23.354;2023-01-28T09:07:25;94043.50;;;1.51;74.73
11692;BME280;33659;42.672;23.354;2023-01-28T09:09:52;94063.66;;;1.44;75.18
11692;BME280;33659;42.672;23.354;2023-01-28T09:12:20;94036.59;;;1.47;74.29
11692;BME280;33659;42.672;23.354;2023-01-28T09:14:47;94034.72;;;1.52;74.49
11692;BME280;33659;42.672;23.354;2023-01-28T09:17:13;94053.50;;;1.53;74.75
11692;BME280;33659;42.672;23.354;2023-01-28T09:19:40;94055.31;;;1.52;74.34
11692;BME280;33659;42.672;23.354;2023-01-28T09:22:07;94042.75;;;1.51;74.26
11692;BME280;33659;42.672;23.354;2023-01-28T09:24:33;94046.06;;;1.51;74.74
11692;BME280;33659;42.672;23.354;2023-01-28T09:27:00;94055.75;;;1.59;73.69
11692;BME280;33659;42.672;23.354;2023-01-28T09:29:28;94049.34;;;1.57;74.27
11692;BME280;33659;42.672;23.354;2023-01-28T09:31:55;94040.94;;;1.51;74.69
11692;BME280;33659;42.672;23.354;2023-01-28T09:34:21;94048.66;;;1.51;74.44
11692;BME280;33659;42.672;23.354;2023-01-28T09:36:48;94056.22;;;1.43;74.74
11692;BME280;33659;42.672;23.354;2023-01-28T09:39:14;94050.31;;;1.42;75.35
11692;BME280;33659;42.672;23.354;2023-01-28T09:41:48;94042.09;;;1.40;75.64
11692;BME280;33659;42.672;23.354;2023-01-28T09:44:32;94036.94;;;1.40;74.88
11692;BME280;33659;42.672;23.354;2023-01-28T09:47:08;94048.91;;;1.31;75.82
11692;BME280;33659;42.672;23.354;2023-01-28T09:49:40;94041.72;;;1.28;75.41
11692;BME280;33659;42.672;23.354;2023-01-28T09:52:12;94039.66;;;1.30;75.42
11692;BME280;33659;42.672;23.354;2023-01-28T09:54:43;94047.97;;;1.22;76.26
11692;BME280;33659;42.672;23.354;2023-01-28T09:57:13;94028.50;;;1.16;75.73
11692;BME280;33659;42.672;23.354;2023-01-28T09:59:46;94040.06;;;1.18;75.97
11692;BME280;33659;42.672;23.354;2023-01-28T10:02:34;94046.97;;;1.23;76.46
11692;BME280;33659;42.672;23.354;2023-01-28T10:05:13;94056.69;;;1.26;76.32
11692;BME280;33659;42.672;23.354;2023-01-28T10:07:47;94032.91;;;1.34;76.61
11692;BME280;33659;42.672;23.354;2023-01-28T10:10:21;94047.66;;;1.47;76.21
11692;BME280;33659;42.672;23.354;2023-01-28T10:13:05;94046.69;;;1.43;76.50
11692;BME280;33659;42.672;23.354;2023-01-28T10:15:55;94010.38;;;1.26;75.96
11692;BME280;33659;42.672;23.354;2023-01-28T10:18:34;94029.53;;;1.39;76.53
11692;BME280;33659;42.672;23.354;2023-01-28T10:21:09;94042.72;;;1.32;76.89
11692;BME280;33659;42.672;23.354;2023-01-28T10:23:45;94043.63;;;1.41;76.92
11692;BME280;33659;42.672;23.354;2023-01-28T10:26:22;94041.22;;;1.50;76.09
11692;BME280;33659;42.672;23.354;2023-01-28T10:28:53;94032.16;;;1.52;75.88
11692;BME280;33659;42.672;23.354;2023-01-28T10:31:22;94036.84;;;1.50;76.40
11692;BME280;33659;42.672;23.354;2023-01-28T10:33:53;94063.66;;;1.44;75.30
11692;BME280;33659;42.672;23.354;2023-01-28T10:36:19;94041.56;;;1.43;75.89
11692;BME280;33659;42.672;23.354;2023-01-28T10:38:46;94052.63;;;1.44;76.43
11692;BME280;33659;42.672;23.354;2023-01-28T10:41:16;94035.84;;;1.46;75.80
11692;BME280;33659;42.672;23.354;2023-01-28T10:43:46;94036.06;;;1.50;76.74
11692;BME280;33659;42.672;23.354;2023-01-28T10:46:15;94029.25;;;1.59;76.19
11692;BME280;33659;42.672;23.354;2023-01-28T10:48:46;94032.72;;;1.68;75.75
11692;BME280;33659;42.672;23.354;2023-01-28T10:51:13;94034.44;;;1.73;75.21
11692;BME280;33659;42.672;23.354;2023-01-28T10:53:42;94028.69;;;1.81;75.67
11692;BME280;33659;42.672;23.354;2023-01-28T10:56:10;94030.91;;;1.87;74.62
11692;BME280;33659;42.672;23.354;2023-01-28T10:58:47;94037.22;;;1.95;74.59
11692;BME280;33659;42.672;23.354;2023-01-28T11:01:16;94038.31;;;2.08;74.98
11692;BME280;33659;42.672;23.354;2023-01-28T11:03:53;94025.84;;;2.15;74.31
11692;BME280;33659;42.672;23.354;2023-01-28T11:06:25;94042.53;;;2.17;74.22
11692;BME280;33659;42.672;23.354;2023-01-28T11:08:52;94020.28;;;2.08;73.42
11692;BME280;33659;42.672;23.354;2023-01-28T11:11:23;94026.75;;;2.05;73.98
11692;BME280;33659;42.672;23.354;2023-01-28T11:13:51;94034.00;;;2.03;73.92
11692;BME280;33659;42.672;23.354;2023-01-28T11:16:20;94032.38;;;1.94;73.47
11692;BME280;33659;42.672;23.354;2023-01-28T11:18:51;94045.44;;;1.97;74.16
11692;BME280;33659;42.672;23.354;2023-01-28T11:21:21;94042.22;;;1.86;74.02
11692;BME280;33659;42.672;23.354;2023-01-28T11:23:50;94037.38;;;1.85;73.66
11692;BME280;33659;42.672;23.354;2023-01-28T11:26:21;94039.81;;;1.76;73.89
11692;BME280;33659;42.672;23.354;2023-01-28T11:28:49;94028.34;;;1.69;74.09
11692;BME280;33659;42.672;23.354;2023-01-28T11:31:17;94025.41;;;1.75;73.71
11692;BME280;33659;42.672;23.354;2023-01-28T11:33:48;94023.09;;;1.74;74.21
11692;BME280;33659;42.672;23.354;2023-01-28T11:36:18;94028.75;;;1.76;73.60
11692;BME280;33659;42.672;23.354;2023-01-28T11:38:51;94021.94;;;1.66;73.51
11692;BME280;33659;42.672;23.354;2023-01-28T11:41:25;94046.28;;;1.74;73.88
11692;BME280;33659;42.672;23.354;2023-01-28T11:43:52;94026.59;;;1.64;73.95
11692;BME280;33659;42.672;23.354;2023-01-28T11:46:45;94009.28;;;1.70;73.50
11692;BME280;33659;42.672;23.354;2023-01-28T11:49:19;94019.22;;;1.76;73.64
11692;BME280;33659;42.672;23.354;2023-01-28T11:51:53;94019.78;;;1.73;73.45
11692;BME280;33659;42.672;23.354;2023-01-28T11:54:36;94038.69;;;1.82;73.46
11692;BME280;33659;42.672;23.354;2023-01-28T11:57:15;94034.84;;;1.80;73.11
11692;BME280;33659;42.672;23.354;2023-01-28T12:00:17;94011.63;;;1.85;73.35
11692;BME280;33659;42.672;23.354;2023-01-28T12:02:50;94026.34;;;1.98;72.96
11692;BME280;33659;42.672;23.354;2023-01-28T12:05:43;94046.69;;;2.00;72.96
11692;BME280;33659;42.672;23.354;2023-01-28T12:08:21;94009.31;;;2.02;72.46
11692;BME280;33659;42.672;23.354;2023-01-28T12:11:01;94024.19;;;2.05;72.79
11692;BME280;33659;42.672;23.354;2023-01-28T12:13:39;94019.94;;;2.14;72.48
11692;BME280;33659;42.672;23.354;2023-01-28T12:16:35;94022.28;;;2.11;72.08
11692;BME280;33659;42.672;23.354;2023-01-28T12:19:17;94020.47;;;2.11;72.09
11692;BME280;33659;42.672;23.354;2023-01-28T12:21:56;94037.38;;;2.17;71.76
11692;BME280;33659;42.672;23.354;2023-01-28T12:24:37;94035.56;;;2.18;72.03
11692;BME280;33659;42.672;23.354;2023-01-28T12:27:18;94032.91;;;2.23;71.51
11692;BME280;33659;42.672;23.354;2023-01-28T12:29:54;94028.25;;;2.25;72.21
11692;BME280;33659;42.672;23.354;2023-01-28T12:32:37;94050.28;;;2.31;72.29
11692;BME280;33659;42.672;23.354;2023-01-28T12:35:37;94048.31;;;2.42;71.32
11692;BME280;33659;42.672;23.354;2023-01-28T12:38:13;94041.44;;;2.37;70.70
11692;BME280;33659;42.672;23.354;2023-01-28T12:40:56;94048.47;;;2.32;71.56
11692;BME280;33659;42.672;23.354;2023-01-28T12:43:40;94040.94;;;2.22;71.76
11692;BME280;33659;42.672;23.354;2023-01-28T12:46:16;94036.44;;;2.13;71.96
11692;BME280;33659;42.672;23.354;2023-01-28T12:48:47;94048.75;;;2.16;71.98
11692;BME280;33659;42.672;23.354;2023-01-28T12:51:20;94046.63;;;2.18;72.52
11692;BME280;33659;42.672;23.354;2023-01-28T12:53:52;94035.97;;;2.25;72.73
11692;BME280;33659;42.672;23.354;2023-01-28T12:56:24;94049.38;;;2.41;72.16
11692;BME280;33659;42.672;23.354;2023-01-28T12:58:59;94056.53;;;2.44;72.04
11692;BME280;33659;42.672;23.354;2023-01-28T13:01:34;94064.22;;;2.30;71.78
11692;BME280;33659;42.672;23.354;2023-01-28T13:04:07;94048.84;;;2.25;71.90
11692;BME280;33659;42.672;23.354;2023-01-28T13:06:40;94015.84;;;2.13;71.97
11692;BME280;33659;42.672;23.354;2023-01-28T13:09:15;94077.34;;;2.15;71.08
11692;BME280;33659;42.672;23.354;2023-01-28T13:11:44;94060.44;;;2.09;71.24
11692;BME280;33659;42.672;23.354;2023-01-28T13:14:14;94080.00;;;2.10;71.09
11692;BME280;33659;42.672;23.354;2023-01-28T13:16:41;94066.44;;;2.04;71.28
11692;BME280;33659;42.672;23.354;2023-01-28T13:19:21;94093.22;;;2.03;71.79
11692;BME280;33659;42.672;23.354;2023-01-28T13:21:48;94071.78;;;2.08;71.46
11692;BME280;33659;42.672;23.354;2023-01-28T13:24:22;94066.25;;;2.01;71.80